Time,TemperatureF,DewpointF,PressureIn,WindDirection,WindDirectionDegrees,WindSpeedMPH,WindSpeedGustMPH,Humidity,HourlyPrecipIn,Conditions,Clouds,dailyrainin,SoftwareType,DateUTC
2013-09-04 00:12:00,75.0,45.0,29.69,WSW,238,13.0,18.0,35,0.00,,,0.00,,2013-09-04 06:12:00,
2013-09-04 00:22:00,78.0,48.0,29.69,SSW,209,11.0,30.0,35,0.00,,,0.00,,2013-09-04 06:22:00,
2013-09-04 00:42:00,78.0,49.0,29.69,SW,231,13.0,21.0,36,0.00,,,0.00,,2013-09-04 06:42:00,
2013-09-04 00:52:00,77.0,48.0,29.70,SW,220,12.0,20.0,36,0.00,,,0.00,,2013-09-04 06:52:00,
2013-09-04 01:11:00,77.0,48.0,29.70,WSW,244,11.0,18.0,36,0.00,,,0.00,,2013-09-04 07:11:00,
2013-09-04 01:22:00,78.0,49.0,29.70,SW,236,12.0,18.0,36,0.00,,,0.00,,2013-09-04 07:22:00,
2013-09-04 01:52:00,77.0,48.0,29.69,WSW,238,9.0,15.0,36,0.00,,,0.00,,2013-09-04 07:52:00,
2013-09-04 02:12:00,77.0,48.0,29.70,WSW,240,12.0,18.0,36,0.00,,,0.00,,2013-09-04 08:12:00,
2013-09-04 02:22:00,77.0,47.0,29.70,NE,55,5.0,13.0,35,0.00,,,0.00,,2013-09-04 08:22:00,
2013-09-04 02:52:00,73.0,49.0,29.73,East,94,5.0,15.0,43,0.00,,,0.00,,2013-09-04 08:52:00,
2013-09-04 03:11:00,71.0,51.0,29.72,West,275,5.0,9.0,50,0.00,,,0.00,,2013-09-04 09:11:00,
2013-09-04 03:21:00,71.0,51.0,29.73,SSE,162,4.0,8.0,50,0.00,,,0.00,,2013-09-04 09:21:00,
2013-09-04 03:43:00,71.0,54.0,29.73,ENE,69,2.0,5.0,54,0.00,,,0.00,,2013-09-04 09:43:00,
2013-09-04 03:53:00,70.0,53.0,29.72,ENE,69,2.0,4.0,55,0.00,,,0.00,,2013-09-04 09:53:00,
2013-09-04 04:12:00,69.0,53.0,29.72,ENE,68,2.0,4.0,56,0.00,,,0.00,,2013-09-04 10:12:00,
2013-09-04 04:23:00,69.0,54.0,29.72,ENE,68,1.0,3.0,58,0.00,,,0.00,,2013-09-04 10:23:00,
2013-09-04 04:42:00,67.0,53.0,29.72,ENE,68,1.0,3.0,60,0.00,,,0.00,,2013-09-04 10:42:00,
2013-09-04 04:52:00,66.0,53.0,29.72,NW,305,6.0,8.0,63,0.00,,,0.00,,2013-09-04 10:52:00,
2013-09-04 05:12:00,66.0,53.0,29.71,NW,311,8.0,11.0,62,0.00,,,0.00,,2013-09-04 11:12:00,
2013-09-04 05:22:00,66.0,52.0,29.71,WNW,284,8.0,13.0,61,0.00,,,0.00,,2013-09-04 11:22:00,
2013-09-04 05:51:00,66.0,51.0,29.71,WNW,292,4.0,8.0,58,0.00,,,0.00,,2013-09-04 11:51:00,
2013-09-04 06:11:00,66.0,51.0,29.72,NNE,13,1.0,5.0,58,0.00,,,0.00,,2013-09-04 12:11:00,
2013-09-04 06:21:00,66.0,51.0,29.72,NNE,13,1.0,5.0,58,0.00,,,0.00,,2013-09-04 12:21:00,
2013-09-04 06:42:00,65.0,51.0,29.72,NNE,13,0.0,2.0,61,0.00,,,0.00,,2013-09-04 12:42:00,
2013-09-04 06:52:00,64.0,51.0,29.72,NNW,336,3.0,5.0,62,0.00,,,0.00,,2013-09-04 12:52:00,
2013-09-04 07:11:00,64.0,49.0,29.72,WNW,286,6.0,8.0,59,0.00,,,0.00,,2013-09-04 13:11:00,
2013-09-04 07:21:00,64.0,50.0,29.72,West,279,5.0,7.0,61,0.00,,,0.00,,2013-09-04 13:21:00,
2013-09-04 07:52:00,65.0,52.0,29.73,North,5,1.0,2.0,62,0.00,,,0.00,,2013-09-04 13:52:00,
2013-09-04 08:11:00,66.0,53.0,29.73,North,5,0.0,3.0,62,0.00,,,0.00,,2013-09-04 14:11:00,
2013-09-04 08:21:00,68.0,53.0,29.73,North,5,2.0,4.0,59,0.00,,,0.00,,2013-09-04 14:21:00,
2013-09-04 08:42:00,69.0,54.0,29.73,NNE,19,1.0,3.0,58,0.00,,,0.00,,2013-09-04 14:42:00,
2013-09-04 08:51:00,69.0,53.0,29.73,SE,133,0.0,3.0,57,0.00,,,0.00,,2013-09-04 14:51:00,
2013-09-04 09:12:00,71.0,52.0,29.73,ENE,57,1.0,4.0,52,0.00,,,0.00,,2013-09-04 15:12:00,
2013-09-04 09:22:00,72.0,53.0,29.73,ENE,57,0.0,1.0,51,0.00,,,0.00,,2013-09-04 15:22:00,
2013-09-04 09:43:00,73.0,54.0,29.74,ENE,57,3.0,5.0,52,0.00,,,0.00,,2013-09-04 15:43:00,
2013-09-04 09:53:00,71.0,54.0,29.74,NE,55,8.0,11.0,56,0.00,,,0.00,,2013-09-04 15:53:00,
2013-09-04 10:12:00,72.0,54.0,29.75,NE,50,7.0,11.0,54,0.00,,,0.00,,2013-09-04 16:12:00,
2013-09-04 10:23:00,71.0,54.0,29.75,NE,42,4.0,8.0,54,0.00,,,0.00,,2013-09-04 16:23:00,
2013-09-04 10:43:00,72.0,53.0,29.76,NE,45,4.0,8.0,52,0.00,,,0.00,,2013-09-04 16:43:00,
2013-09-04 10:53:00,72.0,54.0,29.75,NNE,28,2.0,5.0,53,0.00,,,0.00,,2013-09-04 16:53:00,
2013-09-04 11:13:00,72.0,53.0,29.75,North,350,4.0,9.0,52,0.00,,,0.00,,2013-09-04 17:13:00,
2013-09-04 11:22:00,73.0,54.0,29.75,NE,39,5.0,8.0,51,0.00,,,0.00,,2013-09-04 17:22:00,
2013-09-04 11:34:00,73.0,54.0,29.75,NE,39,5.0,8.0,51,0.00,,,0.00,,2013-09-04 17:34:00,
2013-09-04 11:42:00,73.0,54.0,29.75,NE,39,5.0,8.0,51,0.00,,,0.00,,2013-09-04 17:42:00,
2013-09-04 11:52:00,74.0,54.0,29.74,NE,36,4.0,7.0,50,0.00,,,0.00,,2013-09-04 17:52:00,
2013-09-04 12:12:00,77.0,54.0,29.74,ENE,60,6.0,10.0,45,0.00,,,0.00,,2013-09-04 18:12:00,
2013-09-04 12:21:00,78.0,54.0,29.74,NNE,28,7.0,13.0,44,0.00,,,0.00,,2013-09-04 18:21:00,
2013-09-04 12:42:00,80.0,55.0,29.73,NE,49,7.0,11.0,42,0.00,,,0.00,,2013-09-04 18:42:00,
2013-09-04 12:52:00,81.0,55.0,29.73,ENE,67,8.0,11.0,41,0.00,,,0.00,,2013-09-04 18:52:00,
2013-09-04 13:11:00,82.0,54.0,29.73,NE,56,6.0,12.0,38,0.00,,,0.00,,2013-09-04 19:11:00,
2013-09-04 13:22:00,83.0,54.0,29.72,ENE,60,8.0,11.0,37,0.00,,,0.00,,2013-09-04 19:22:00,
2013-09-04 13:42:00,84.0,54.0,29.72,NE,44,0.0,5.0,36,0.00,,,0.00,,2013-09-04 19:42:00,
2013-09-04 13:52:00,84.0,53.0,29.71,NE,42,5.0,9.0,35,0.00,,,0.00,,2013-09-04 19:52:00,
2013-09-04 14:11:00,84.0,53.0,29.71,ENE,59,2.0,10.0,35,0.00,,,0.00,,2013-09-04 20:11:00,
2013-09-04 14:22:00,85.0,54.0,29.71,NE,36,3.0,9.0,35,0.00,,,0.00,,2013-09-04 20:22:00,
2013-09-04 14:43:00,86.0,54.0,29.70,NE,50,6.0,12.0,33,0.00,,,0.00,,2013-09-04 20:43:00,
2013-09-04 14:53:00,86.0,54.0,29.70,ENE,58,7.0,11.0,33,0.00,,,0.00,,2013-09-04 20:53:00,
2013-09-04 15:11:00,87.0,52.0,29.69,NNW,331,4.0,10.0,30,0.00,,,0.00,,2013-09-04 21:11:00,
2013-09-04 15:22:00,88.0,54.0,29.69,ENE,63,3.0,9.0,31,0.00,,,0.00,,2013-09-04 21:22:00,
2013-09-04 15:44:00,88.0,53.0,29.68,WSW,258,2.0,10.0,30,0.00,,,0.00,,2013-09-04 21:44:00,
2013-09-04 15:54:00,88.0,53.0,29.68,East,101,4.0,10.0,30,0.00,,,0.00,,2013-09-04 21:54:00,
2013-09-04 16:14:00,88.0,54.0,29.68,West,266,4.0,10.0,31,0.00,,,0.00,,2013-09-04 22:14:00,
2013-09-04 16:23:00,88.0,53.0,29.68,SSE,151,3.0,12.0,30,0.00,,,0.00,,2013-09-04 22:23:00,
2013-09-04 16:54:00,86.0,52.0,29.68,NE,44,3.0,8.0,31,0.00,,,0.00,,2013-09-04 22:54:00,
2013-09-04 17:13:00,86.0,52.0,29.68,East,90,4.0,7.0,31,0.00,,,0.00,,2013-09-04 23:13:00,
2013-09-04 17:22:00,86.0,52.0,29.67,NNE,29,0.0,5.0,31,0.00,,,0.00,,2013-09-04 23:22:00,
2013-09-04 17:42:00,86.0,54.0,29.68,North,5,2.0,6.0,33,0.00,,,0.00,,2013-09-04 23:42:00,
2013-09-04 17:52:00,86.0,54.0,29.68,North,5,2.0,6.0,33,0.00,,,0.00,,2013-09-04 23:52:00,
2013-09-04 18:11:00,81.0,55.0,29.70,East,86,6.0,11.0,41,0.00,,,0.00,,2013-09-05 00:11:00,
2013-09-04 18:22:00,81.0,56.0,29.69,ENE,65,6.0,12.0,42,0.00,,,0.00,,2013-09-05 00:22:00,
2013-09-04 18:42:00,82.0,55.0,29.70,North,355,4.0,9.0,40,0.00,,,0.00,,2013-09-05 00:42:00,
2013-09-04 18:52:00,81.0,55.0,29.70,NE,48,10.0,18.0,41,0.00,,,0.00,,2013-09-05 00:52:00,
2013-09-04 19:11:00,79.0,55.0,29.71,NE,39,9.0,13.0,43,0.00,,,0.00,,2013-09-05 01:11:00,
2013-09-04 19:21:00,76.0,55.0,29.71,North,5,9.0,15.0,49,0.00,,,0.00,,2013-09-05 01:21:00,
2013-09-04 19:42:00,75.0,55.0,29.71,NNW,337,3.0,10.0,50,0.00,,,0.00,,2013-09-05 01:42:00,
2013-09-04 19:52:00,75.0,54.0,29.72,SSW,213,6.0,8.0,48,0.00,,,0.00,,2013-09-05 01:52:00,
2013-09-04 20:11:00,76.0,54.0,29.73,North,355,2.0,9.0,46,0.00,,,0.00,,2013-09-05 02:11:00,
2013-09-04 20:21:00,75.0,56.0,29.74,NE,51,5.0,10.0,52,0.00,,,0.00,,2013-09-05 02:21:00,
2013-09-04 21:11:00,72.0,55.0,29.75,ESE,118,1.0,5.0,56,0.00,,,0.00,,2013-09-05 03:11:00,
2013-09-04 21:22:00,71.0,54.0,29.76,ESE,118,2.0,5.0,56,0.00,,,0.00,,2013-09-05 03:22:00,
2013-09-04 21:45:00,71.0,55.0,29.76,NW,321,2.0,5.0,57,0.00,,,0.00,,2013-09-05 03:45:00,
2013-09-04 21:54:00,71.0,55.0,29.76,SW,229,3.0,5.0,57,0.00,,,0.00,,2013-09-05 03:54:00,
2013-09-04 22:13:00,71.0,55.0,29.76,WNW,284,6.0,8.0,58,0.00,,,0.00,,2013-09-05 04:13:00,
2013-09-04 22:24:00,71.0,54.0,29.75,West,274,7.0,9.0,55,0.00,,,0.00,,2013-09-05 04:24:00,
2013-09-04 22:44:00,70.0,53.0,29.75,WNW,289,6.0,9.0,54,0.00,,,0.00,,2013-09-05 04:44:00,
2013-09-04 22:53:00,71.0,54.0,29.75,West,278,5.0,8.0,54,0.00,,,0.00,,2013-09-05 04:53:00,
2013-09-04 23:12:00,71.0,52.0,29.75,NW,305,4.0,6.0,52,0.00,,,0.00,,2013-09-05 05:12:00,
2013-09-04 23:23:00,71.0,52.0,29.75,WNW,302,5.0,8.0,52,0.00,,,0.00,,2013-09-05 05:23:00,
2013-09-04 23:43:00,71.0,52.0,29.75,WNW,296,3.0,7.0,51,0.00,,,0.00,,2013-09-05 05:43:00,
2013-09-04 23:52:00,71.0,52.0,29.74,WNW,297,5.0,7.0,51,0.00,,,0.00,,2013-09-05 05:52:00,